createdAt,value
2023-05-15T00:00:04.725Z,12.00
2023-05-15T00:01:04.766Z,11.90
2023-05-15T00:02:10.981Z,11.80
2023-05-15T00:03:04.952Z,11.80
2023-05-15T00:04:04.696Z,12.00
2023-05-15T00:05:04.787Z,11.90
2023-05-15T00:06:04.721Z,11.90
2023-05-15T00:07:04.742Z,11.90
2023-05-15T00:08:04.721Z,11.90
2023-05-15T00:09:04.731Z,11.80
2023-05-15T00:10:08.679Z,11.70
2023-05-15T00:12:04.738Z,11.80
2023-05-15T00:13:08.467Z,11.70
2023-05-15T00:14:04.744Z,11.60
2023-05-15T00:15:06.357Z,11.60
2023-05-15T00:16:11.589Z,11.50
2023-05-15T00:17:09.410Z,11.60
2023-05-15T00:18:04.768Z,11.60
2023-05-15T00:19:08.802Z,11.60
2023-05-15T00:20:04.755Z,11.50
2023-05-15T00:21:05.882Z,11.50
2023-05-15T00:22:08.429Z,11.50
2023-05-15T00:23:06.519Z,11.60
2023-05-15T00:24:04.728Z,11.40
2023-05-15T00:25:04.755Z,11.50
2023-05-15T00:26:04.770Z,11.50
2023-05-15T00:27:04.722Z,11.50
2023-05-15T00:28:08.305Z,11.40
2023-05-15T00:29:04.736Z,11.50
2023-05-15T00:30:04.746Z,11.40
2023-05-15T00:31:11.267Z,11.30
2023-05-15T00:33:04.791Z,11.40
2023-05-15T00:34:08.670Z,11.30
2023-05-15T00:35:04.781Z,11.40
2023-05-15T00:36:08.465Z,11.30
2023-05-15T00:37:04.772Z,11.30
2023-05-15T00:39:04.788Z,11.30
2023-05-15T00:41:11.451Z,11.20
2023-05-15T00:42:04.766Z,11.20
2023-05-15T00:43:08.389Z,11.20
2023-05-15T00:44:04.808Z,11.20
2023-05-15T00:47:04.777Z,11.20
2023-05-15T00:48:04.783Z,11.20
2023-05-15T00:49:04.762Z,11.10
2023-05-15T00:51:04.797Z,11.10
2023-05-15T00:53:04.781Z,11.10
2023-05-15T00:54:04.761Z,11.10
2023-05-15T00:55:08.564Z,11.00
2023-05-15T00:56:06.621Z,11.10
2023-05-15T00:57:06.651Z,11.10
2023-05-15T00:58:04.805Z,11.10
2023-05-15T00:59:13.517Z,11.10
2023-05-15T01:00:04.786Z,11.00
2023-05-15T01:01:07.435Z,11.00
2023-05-15T01:02:06.683Z,11.00
2023-05-15T01:03:10.898Z,11.00
2023-05-15T01:04:04.828Z,11.00
2023-05-15T01:05:06.680Z,11.10
2023-05-15T01:06:08.344Z,11.10
2023-05-15T01:07:04.796Z,11.00
2023-05-15T01:09:04.799Z,10.90
2023-05-15T01:11:04.793Z,11.00
2023-05-15T01:12:04.635Z,11.00
2023-05-15T01:13:04.785Z,11.00
2023-05-15T01:14:04.799Z,11.00
2023-05-15T01:16:04.802Z,11.00
2023-05-15T01:17:04.812Z,10.90
2023-05-15T01:19:04.949Z,11.00
2023-05-15T01:20:04.837Z,10.90
2023-05-15T01:21:04.800Z,10.90
2023-05-15T01:22:04.811Z,10.90
2023-05-15T01:23:04.793Z,10.90
2023-05-15T01:24:04.833Z,10.90
2023-05-15T01:25:04.813Z,10.80
2023-05-15T01:26:08.594Z,10.80
2023-05-15T01:27:04.827Z,10.80
2023-05-15T01:28:04.807Z,10.90
2023-05-15T01:29:08.501Z,10.80
2023-05-15T01:30:04.803Z,10.70
2023-05-15T01:31:04.860Z,10.90
2023-05-15T01:32:04.792Z,10.80
2023-05-15T01:33:04.853Z,10.80
2023-05-15T01:34:04.788Z,10.80
2023-05-15T01:35:04.808Z,10.80
2023-05-15T01:36:04.801Z,10.80
2023-05-15T01:37:04.818Z,10.80
2023-05-15T01:38:04.794Z,10.80
2023-05-15T01:39:08.498Z,10.80
2023-05-15T01:40:04.836Z,10.80
2023-05-15T01:42:04.819Z,10.80
2023-05-15T01:44:04.866Z,10.80
2023-05-15T01:45:04.820Z,10.80
2023-05-15T01:46:04.848Z,10.80
2023-05-15T01:47:04.827Z,10.80
2023-05-15T01:49:04.870Z,10.80
2023-05-15T01:51:05.858Z,10.80
2023-05-15T01:53:10.914Z,10.70
2023-05-15T01:54:10.910Z,10.80
2023-05-15T01:55:10.921Z,10.70
2023-05-15T01:56:08.470Z,10.80
2023-05-15T01:57:06.383Z,10.70
2023-05-15T01:58:04.838Z,10.70
2023-05-15T02:00:08.458Z,10.70
2023-05-15T02:01:06.414Z,10.70
2023-05-15T02:02:04.875Z,10.70
2023-05-15T02:03:04.942Z,10.60
2023-05-15T02:04:04.981Z,10.60
2023-05-15T02:05:08.843Z,10.50
2023-05-15T02:06:08.378Z,10.50
2023-05-15T02:07:04.831Z,10.50
2023-05-15T02:08:06.186Z,10.60
2023-05-15T02:09:04.854Z,10.60
2023-05-15T02:10:04.869Z,10.60
2023-05-15T02:11:08.523Z,10.60
2023-05-15T02:12:06.510Z,10.50
2023-05-15T02:13:04.851Z,10.50
2023-05-15T02:14:04.875Z,10.60
2023-05-15T02:15:08.576Z,10.50
2023-05-15T02:16:04.963Z,10.60
2023-05-15T02:17:04.853Z,10.50
2023-05-15T02:18:08.545Z,10.50
2023-05-15T02:19:09.126Z,10.50
2023-05-15T02:20:04.853Z,10.40
2023-05-15T02:22:04.851Z,10.50
2023-05-15T02:23:04.836Z,10.40
2023-05-15T02:24:04.868Z,10.50
2023-05-15T02:25:04.919Z,10.40
2023-05-15T02:26:04.841Z,10.40
2023-05-15T02:27:04.869Z,10.40
2023-05-15T02:28:04.872Z,10.40
2023-05-15T02:30:04.871Z,10.40
2023-05-15T02:31:04.896Z,10.40
2023-05-15T02:32:04.900Z,10.40
2023-05-15T02:33:08.690Z,10.30
2023-05-15T02:34:04.880Z,10.30
2023-05-15T02:35:04.853Z,10.40
2023-05-15T02:36:05.957Z,10.40
2023-05-15T02:37:08.453Z,10.40
2023-05-15T02:38:04.886Z,10.40
2023-05-15T02:39:08.695Z,10.30
2023-05-15T02:40:04.684Z,10.30
2023-05-15T02:41:04.725Z,10.30
2023-05-15T02:42:04.733Z,10.40
2023-05-15T02:43:04.736Z,10.40
2023-05-15T02:44:08.404Z,10.40
2023-05-15T02:45:04.882Z,10.40
2023-05-15T02:46:11.138Z,10.40
2023-05-15T02:47:04.904Z,10.40
2023-05-15T02:48:08.526Z,10.40
2023-05-15T02:49:04.892Z,10.30
2023-05-15T02:50:04.893Z,10.50
2023-05-15T02:51:04.881Z,10.40
2023-05-15T02:52:04.900Z,10.40
2023-05-15T02:54:04.887Z,10.50
2023-05-15T02:55:08.685Z,10.50
2023-05-15T02:56:04.929Z,10.40
2023-05-15T02:57:04.869Z,10.40
2023-05-15T02:58:04.902Z,10.50
2023-05-15T03:00:04.909Z,10.40
2023-05-15T03:01:04.926Z,10.50
2023-05-15T03:02:04.890Z,10.50
2023-05-15T03:03:04.868Z,10.50
2023-05-15T03:04:04.908Z,10.50
2023-05-15T03:05:04.897Z,10.50
2023-05-15T03:06:04.917Z,10.50
2023-05-15T03:07:04.927Z,10.50
2023-05-15T03:08:08.605Z,10.50
2023-05-15T03:09:04.888Z,10.50
2023-05-15T03:10:11.032Z,10.50
2023-05-15T03:11:11.032Z,10.50
2023-05-15T03:12:05.004Z,10.40
2023-05-15T03:13:04.923Z,10.50
2023-05-15T03:15:04.923Z,10.50
2023-05-15T03:16:04.898Z,10.50
2023-05-15T03:17:04.958Z,10.50
2023-05-15T03:18:06.345Z,10.50
2023-05-15T03:19:06.583Z,10.50
2023-05-15T03:20:05.736Z,10.50
2023-05-15T03:21:08.317Z,10.50
2023-05-15T03:22:04.928Z,10.50
2023-05-15T03:23:04.931Z,10.50
2023-05-15T03:25:11.084Z,10.40
2023-05-15T03:26:08.735Z,10.40
2023-05-15T03:27:05.712Z,10.40
2023-05-15T03:28:04.666Z,10.40
2023-05-15T03:29:04.663Z,10.40
2023-05-15T03:30:05.755Z,10.40
2023-05-15T03:31:04.737Z,10.40
2023-05-15T03:32:04.763Z,10.50
2023-05-15T03:33:08.523Z,10.40
2023-05-15T03:34:04.899Z,10.40
2023-05-15T03:35:04.955Z,10.40
2023-05-15T03:37:04.916Z,10.40
2023-05-15T03:39:04.923Z,10.40
2023-05-15T03:40:04.927Z,10.40
2023-05-15T03:41:06.212Z,10.30
2023-05-15T03:42:04.934Z,10.30
2023-05-15T03:43:04.930Z,10.30
2023-05-15T03:44:08.766Z,10.30
2023-05-15T03:45:04.778Z,10.30
2023-05-15T03:46:08.500Z,10.30
2023-05-15T03:48:04.999Z,10.30
2023-05-15T03:49:04.903Z,10.30
2023-05-15T03:50:04.944Z,10.20
2023-05-15T03:51:08.558Z,10.30
2023-05-15T03:52:04.936Z,10.30
2023-05-15T03:54:08.667Z,10.30
2023-05-15T03:55:05.708Z,10.30
2023-05-15T03:56:03.148Z,10.20
2023-05-15T03:57:04.951Z,10.30
2023-05-15T03:58:04.930Z,10.30
2023-05-15T03:59:04.920Z,10.30
2023-05-15T04:00:04.914Z,10.30
2023-05-15T04:01:04.988Z,10.20
2023-05-15T04:02:05.745Z,10.20
2023-05-15T04:04:04.949Z,10.20
2023-05-15T04:05:05.013Z,10.30
2023-05-15T04:06:04.935Z,10.30
2023-05-15T04:07:04.973Z,10.30
2023-05-15T04:08:04.925Z,10.30
2023-05-15T04:09:04.948Z,10.30
2023-05-15T04:10:04.987Z,10.30
2023-05-15T04:11:04.933Z,10.30
2023-05-15T04:12:08.687Z,10.30
2023-05-15T04:13:08.436Z,10.30
2023-05-15T04:14:08.941Z,10.30
2023-05-15T04:15:08.432Z,10.30
2023-05-15T04:16:05.029Z,10.30
2023-05-15T04:17:04.981Z,10.30
2023-05-15T04:19:08.696Z,10.30
2023-05-15T04:20:05.882Z,10.30
2023-05-15T04:21:04.807Z,10.30
2023-05-15T04:22:05.901Z,10.20
2023-05-15T04:23:04.818Z,10.30
2023-05-15T04:24:04.973Z,10.20
2023-05-15T04:25:06.169Z,10.30
2023-05-15T04:27:08.740Z,10.30
2023-05-15T04:28:08.328Z,10.30
2023-05-15T04:29:05.077Z,10.30
2023-05-15T04:30:04.946Z,10.30
2023-05-15T04:31:04.958Z,10.30
2023-05-15T04:32:04.979Z,10.40
2023-05-15T04:33:05.015Z,10.30
2023-05-15T04:34:08.862Z,10.40
2023-05-15T04:35:08.369Z,10.50
2023-05-15T04:36:04.997Z,10.40
2023-05-15T04:37:04.967Z,10.50
2023-05-15T04:38:08.635Z,10.40
2023-05-15T04:39:05.001Z,10.40
2023-05-15T04:40:06.312Z,10.40
2023-05-15T04:41:04.982Z,10.40
2023-05-15T04:42:04.989Z,10.30
2023-05-15T04:43:13.467Z,10.40
2023-05-15T04:44:03.176Z,10.30
2023-05-15T04:46:05.055Z,10.50
2023-05-15T04:47:08.843Z,10.50
2023-05-15T04:48:05.832Z,10.50
2023-05-15T04:49:04.846Z,10.60
2023-05-15T04:50:04.852Z,10.60
2023-05-15T04:52:03.150Z,10.50
2023-05-15T04:53:03.136Z,10.60
2023-05-15T04:54:05.864Z,10.70
2023-05-15T04:55:04.835Z,10.60
2023-05-15T04:56:08.428Z,10.70
2023-05-15T04:57:04.988Z,10.60
2023-05-15T04:58:04.981Z,10.60
2023-05-15T04:59:04.982Z,10.70
2023-05-15T05:00:08.658Z,10.70
2023-05-15T05:01:08.253Z,10.70
2023-05-15T05:02:08.800Z,10.70
2023-05-15T05:03:04.892Z,10.90
2023-05-15T05:04:05.076Z,10.80
2023-05-15T05:05:05.015Z,10.80
2023-05-15T05:07:05.023Z,10.80
2023-05-15T05:08:04.982Z,10.80
2023-05-15T05:09:08.722Z,10.90
2023-05-15T05:10:04.988Z,10.90
2023-05-15T05:12:08.680Z,11.00
2023-05-15T05:14:05.744Z,11.10
2023-05-15T05:15:03.257Z,11.10
2023-05-15T05:16:03.260Z,11.00
2023-05-15T05:17:04.880Z,11.00
2023-05-15T05:18:06.072Z,11.10
2023-05-15T05:19:06.289Z,11.00
2023-05-15T05:20:05.051Z,11.10
2023-05-15T05:21:08.666Z,11.00
2023-05-15T05:22:05.066Z,11.10
2023-05-15T05:23:05.027Z,11.00
2023-05-15T05:24:08.723Z,11.20
2023-05-15T05:25:03.218Z,11.10
2023-05-15T05:26:06.178Z,11.10
2023-05-15T05:27:05.036Z,11.20
2023-05-15T05:28:05.016Z,11.30
2023-05-15T05:30:08.805Z,11.50
2023-05-15T05:31:04.912Z,11.40
2023-05-15T05:32:08.540Z,11.50
2023-05-15T05:33:05.114Z,11.50
2023-05-15T05:35:05.065Z,11.60
2023-05-15T05:36:05.069Z,11.50
2023-05-15T05:37:13.876Z,11.70
2023-05-15T05:38:04.857Z,11.60
2023-05-15T05:39:04.838Z,11.60
2023-05-15T05:40:04.886Z,11.80
2023-05-15T05:41:04.898Z,11.60
2023-05-15T05:42:08.566Z,11.90
2023-05-15T05:43:05.061Z,11.90
2023-05-15T05:44:11.282Z,12.10
2023-05-15T05:45:05.084Z,12.10
2023-05-15T05:46:05.087Z,12.20
2023-05-15T05:47:06.238Z,12.20
2023-05-15T05:48:05.138Z,12.30
2023-05-15T05:49:05.026Z,12.50
2023-05-15T05:50:05.056Z,12.60
2023-05-15T05:51:05.065Z,12.70
2023-05-15T05:52:05.093Z,12.70
2023-05-15T05:54:05.038Z,13.10
2023-05-15T05:55:05.127Z,13.00
2023-05-15T05:57:03.230Z,13.10
2023-05-15T05:58:03.422Z,13.40
2023-05-15T05:59:05.026Z,13.60
2023-05-15T06:00:08.719Z,14.10
2023-05-15T06:01:03.173Z,14.20
2023-05-15T06:03:05.166Z,14.40
2023-05-15T06:04:05.116Z,14.70
2023-05-15T06:05:05.093Z,14.70
2023-05-15T06:06:08.884Z,15.30
2023-05-15T06:07:04.991Z,15.20
2023-05-15T06:08:08.622Z,15.40
2023-05-15T06:11:08.516Z,15.90
2023-05-15T06:12:05.097Z,15.90
2023-05-15T06:15:05.101Z,16.30
2023-05-15T06:16:05.145Z,16.40
2023-05-15T06:18:12.426Z,16.80
2023-05-15T06:20:08.970Z,17.10
2023-05-15T06:21:08.565Z,17.10
2023-05-15T06:23:08.543Z,17.40
2023-05-15T06:24:05.050Z,17.30
2023-05-15T06:25:05.133Z,17.50
2023-05-15T06:26:05.086Z,17.60
2023-05-15T06:27:08.936Z,17.60
2023-05-15T06:28:04.879Z,17.70
2023-05-15T06:29:04.948Z,17.90
2023-05-15T06:30:05.097Z,17.90
2023-05-15T06:31:08.836Z,18.00
2023-05-15T06:32:04.868Z,18.00
2023-05-15T06:33:08.520Z,18.10
2023-05-15T06:34:05.124Z,18.20
2023-05-15T06:35:06.387Z,18.40
2023-05-15T06:37:06.332Z,18.50
2023-05-15T06:38:05.092Z,18.40
2023-05-15T06:39:08.803Z,18.50
2023-05-15T06:40:03.232Z,18.70
2023-05-15T06:41:03.278Z,18.70
2023-05-15T06:42:08.422Z,18.80
2023-05-15T06:43:05.168Z,18.70
2023-05-15T06:44:05.118Z,18.80
2023-05-15T06:45:05.098Z,18.90
2023-05-15T06:46:05.183Z,19.00
2023-05-15T06:47:11.646Z,19.10
2023-05-15T06:49:08.659Z,19.10
2023-05-15T06:50:05.330Z,19.10
2023-05-15T06:52:05.193Z,19.10
2023-05-15T06:54:05.120Z,19.40
2023-05-15T06:55:06.306Z,19.30
2023-05-15T06:56:05.145Z,19.30
2023-05-15T06:57:06.358Z,19.20
2023-05-15T06:59:03.318Z,19.30
2023-05-15T07:00:05.874Z,19.20
2023-05-15T07:01:05.037Z,19.30
2023-05-15T07:02:05.201Z,19.30
2023-05-15T07:03:05.211Z,19.40
2023-05-15T07:05:10.957Z,19.30
2023-05-15T07:06:05.171Z,19.20
2023-05-15T07:07:05.178Z,19.40
2023-05-15T07:08:08.935Z,19.40
2023-05-15T07:09:13.580Z,19.40
2023-05-15T07:10:05.172Z,19.30
2023-05-15T07:11:05.467Z,19.60
2023-05-15T07:12:05.184Z,19.60
2023-05-15T07:13:08.847Z,19.60
2023-05-15T07:14:03.317Z,19.60
2023-05-15T07:15:03.310Z,19.60
2023-05-15T07:16:08.575Z,19.70
2023-05-15T07:17:05.230Z,19.70
2023-05-15T07:18:05.490Z,19.80
2023-05-15T07:19:05.093Z,19.90
2023-05-15T07:20:05.211Z,19.70
2023-05-15T07:21:09.051Z,19.70
2023-05-15T07:22:04.949Z,19.80
2023-05-15T07:23:05.006Z,19.70
2023-05-15T07:24:05.230Z,19.60
2023-05-15T07:25:05.233Z,19.30
2023-05-15T07:27:05.161Z,19.30
2023-05-15T07:28:05.232Z,19.40
2023-05-15T07:29:08.627Z,19.50
2023-05-15T07:30:05.182Z,19.50
2023-05-15T07:31:05.178Z,19.50
2023-05-15T07:32:06.542Z,19.40
2023-05-15T07:33:05.741Z,19.60
2023-05-15T07:34:03.299Z,19.60
2023-05-15T07:35:05.844Z,19.70
2023-05-15T07:36:03.302Z,19.90
2023-05-15T07:37:03.359Z,19.80
2023-05-15T07:38:08.442Z,19.90
2023-05-15T07:39:05.152Z,19.80
2023-05-15T07:40:05.152Z,20.10
2023-05-15T07:41:05.180Z,19.80
2023-05-15T07:42:05.173Z,20.00
2023-05-15T07:43:05.139Z,19.90
2023-05-15T07:44:05.174Z,20.20
2023-05-15T07:45:05.196Z,20.10
2023-05-15T07:46:05.236Z,20.20
2023-05-15T07:47:09.150Z,20.30
2023-05-15T07:48:05.224Z,20.20
2023-05-15T07:49:05.171Z,20.40
2023-05-15T07:51:06.342Z,20.50
2023-05-15T07:52:05.144Z,20.40
2023-05-15T07:53:06.221Z,20.30
2023-05-15T07:54:05.205Z,20.40
2023-05-15T07:55:05.197Z,20.40
2023-05-15T07:56:05.159Z,20.50
2023-05-15T07:57:05.168Z,20.40
2023-05-15T07:58:05.164Z,20.50
2023-05-15T07:59:08.808Z,20.40
2023-05-15T08:00:03.380Z,20.40
2023-05-15T08:01:04.981Z,20.60
2023-05-15T08:02:08.630Z,20.60
2023-05-15T08:03:03.241Z,20.60
2023-05-15T08:04:05.246Z,20.40
2023-05-15T08:05:05.150Z,20.60
2023-05-15T08:06:08.821Z,20.50
2023-05-15T08:07:08.334Z,20.50
2023-05-15T08:08:05.190Z,20.60
2023-05-15T08:09:05.206Z,20.50
2023-05-15T08:10:05.198Z,20.60
2023-05-15T08:11:05.202Z,20.60
2023-05-15T08:12:05.204Z,20.50
2023-05-15T08:13:05.187Z,20.60
2023-05-15T08:14:05.218Z,20.70
2023-05-15T08:15:05.206Z,20.60
2023-05-15T08:16:08.922Z,20.70
2023-05-15T08:17:05.018Z,20.70
2023-05-15T08:18:11.242Z,20.70
2023-05-15T08:19:05.273Z,20.80
2023-05-15T08:20:05.199Z,20.70
2023-05-15T08:21:08.869Z,20.80
2023-05-15T08:23:05.744Z,20.90
2023-05-15T08:24:03.257Z,21.00
2023-05-15T08:25:03.263Z,21.00
2023-05-15T08:26:03.291Z,21.00
2023-05-15T08:27:03.291Z,20.90
2023-05-15T08:28:03.312Z,20.90
2023-05-15T08:29:05.926Z,20.80
2023-05-15T08:30:04.982Z,20.70
2023-05-15T08:31:05.006Z,20.80
2023-05-15T08:32:06.102Z,20.80
2023-05-15T08:33:05.056Z,20.70
2023-05-15T08:34:05.288Z,20.90
2023-05-15T08:35:05.191Z,20.90
2023-05-15T08:36:05.277Z,20.90
2023-05-15T08:37:09.169Z,21.00
2023-05-15T08:38:05.216Z,21.00
2023-05-15T08:39:08.709Z,21.00
2023-05-15T08:41:03.348Z,21.10
2023-05-15T08:42:03.421Z,21.20
2023-05-15T08:43:06.066Z,19.60
2023-05-15T08:44:03.457Z,21.20
2023-05-15T08:45:05.955Z,21.20
2023-05-15T08:46:05.984Z,21.30
2023-05-15T08:47:08.524Z,21.20
2023-05-15T08:49:05.868Z,21.40
2023-05-15T08:50:03.365Z,21.40
2023-05-15T08:51:04.967Z,21.50
2023-05-15T08:52:08.548Z,21.50
2023-05-15T08:53:05.219Z,21.60
2023-05-15T08:54:05.256Z,21.50
2023-05-15T08:56:05.222Z,21.60
2023-05-15T08:57:05.249Z,21.50
2023-05-15T08:58:05.207Z,21.60
2023-05-15T08:59:05.223Z,21.60
2023-05-15T09:00:06.515Z,21.50
2023-05-15T09:01:03.324Z,21.60
2023-05-15T09:02:03.413Z,21.50
2023-05-15T09:03:06.325Z,21.40
2023-05-15T09:04:05.305Z,21.40
2023-05-15T09:05:05.264Z,21.30
2023-05-15T09:07:05.249Z,21.10
2023-05-15T09:08:05.262Z,20.90
2023-05-15T09:09:05.295Z,20.80
2023-05-15T09:10:08.990Z,20.70
2023-05-15T09:11:03.446Z,20.70
2023-05-15T09:12:03.460Z,20.70
2023-05-15T09:13:03.453Z,20.80
2023-05-15T09:14:03.433Z,20.80
2023-05-15T09:15:03.416Z,20.80
2023-05-15T09:16:08.650Z,20.80
2023-05-15T09:17:03.243Z,20.80
2023-05-15T09:18:03.239Z,20.80
2023-05-15T09:19:05.899Z,20.60
2023-05-15T09:20:03.442Z,20.60
2023-05-15T09:21:05.942Z,20.40
2023-05-15T09:22:05.899Z,20.30
2023-05-15T09:23:03.297Z,20.30
2023-05-15T09:24:03.329Z,20.20
2023-05-15T09:25:03.392Z,20.20
2023-05-15T09:26:08.410Z,20.00
2023-05-15T09:27:05.326Z,20.00
2023-05-15T09:28:08.960Z,19.80
2023-05-15T09:29:03.525Z,19.80
2023-05-15T09:30:03.488Z,19.80
2023-05-15T09:31:05.058Z,19.70
2023-05-15T09:32:05.413Z,19.70
2023-05-15T09:33:09.752Z,19.50
2023-05-15T09:35:03.498Z,19.50
2023-05-15T09:36:05.054Z,19.40
2023-05-15T09:37:05.127Z,19.40
2023-05-15T09:38:05.132Z,19.40
2023-05-15T09:39:05.119Z,19.40
2023-05-15T09:40:05.168Z,19.30
2023-05-15T09:41:05.390Z,19.30
2023-05-15T09:42:06.488Z,19.20
2023-05-15T09:43:11.524Z,19.30
2023-05-15T09:44:05.328Z,19.30
2023-05-15T09:45:09.078Z,19.40
2023-05-15T09:47:08.943Z,19.50
2023-05-15T09:49:05.310Z,19.40
2023-05-15T09:50:05.334Z,19.50
2023-05-15T09:51:05.335Z,19.50
2023-05-15T09:52:05.327Z,19.60
2023-05-15T09:53:08.995Z,19.50
2023-05-15T09:54:03.487Z,19.50
2023-05-15T09:55:06.107Z,19.60
2023-05-15T09:56:05.126Z,19.50
2023-05-15T09:57:05.060Z,19.50
2023-05-15T09:58:08.628Z,19.50
2023-05-15T09:59:08.377Z,19.40
2023-05-15T10:00:08.975Z,19.40
2023-05-15T10:01:11.201Z,19.30
2023-05-15T10:03:05.379Z,19.30
2023-05-15T10:04:05.325Z,19.20
2023-05-15T10:05:05.342Z,19.20
2023-05-15T10:06:05.356Z,19.20
2023-05-15T10:07:05.349Z,19.00
2023-05-15T10:08:05.286Z,19.00
2023-05-15T10:09:08.901Z,19.00
2023-05-15T10:10:07.688Z,19.00
2023-05-15T10:11:08.245Z,19.00
2023-05-15T10:12:05.332Z,18.90
2023-05-15T10:13:05.361Z,19.00
2023-05-15T10:15:06.470Z,19.00
2023-05-15T10:16:05.386Z,19.00
2023-05-15T10:17:05.326Z,19.00
2023-05-15T10:19:05.435Z,19.00
2023-05-15T10:20:09.193Z,19.00
2023-05-15T10:21:05.089Z,19.00
2023-05-15T10:22:05.186Z,19.00
2023-05-15T10:23:06.256Z,19.10
2023-05-15T10:24:05.336Z,19.10
2023-05-15T10:25:07.143Z,19.10
2023-05-15T10:26:05.338Z,19.10
2023-05-15T10:27:08.892Z,19.10
2023-05-15T10:28:05.821Z,19.20
2023-05-15T10:29:03.344Z,19.20
2023-05-15T10:30:05.900Z,19.20
2023-05-15T10:31:06.034Z,19.30
2023-05-15T10:32:08.602Z,19.40
2023-05-15T10:33:05.424Z,19.40
2023-05-15T10:34:16.757Z,19.50
2023-05-15T10:36:08.543Z,19.70
2023-05-15T10:37:05.318Z,19.70
2023-05-15T10:38:05.390Z,19.70
2023-05-15T10:39:05.337Z,19.70
2023-05-15T10:40:05.340Z,19.80
2023-05-15T10:41:16.346Z,19.90
2023-05-15T10:43:03.327Z,20.10
2023-05-15T10:44:03.271Z,20.10
2023-05-15T10:45:03.271Z,20.20
2023-05-15T10:46:03.368Z,20.30
2023-05-15T10:47:05.990Z,20.50
2023-05-15T10:48:03.598Z,20.50
2023-05-15T10:49:03.587Z,20.60
2023-05-15T10:50:06.164Z,20.80
2023-05-15T10:51:05.170Z,20.80
2023-05-15T10:52:06.215Z,20.90
2023-05-15T10:53:05.108Z,20.90
2023-05-15T10:54:08.625Z,20.90
2023-05-15T10:55:05.342Z,20.90
2023-05-15T10:56:05.392Z,20.90
2023-05-15T10:57:05.345Z,20.90
2023-05-15T10:59:06.555Z,20.60
2023-05-15T11:00:09.128Z,20.60
2023-05-15T11:01:06.112Z,20.50
2023-05-15T11:02:08.789Z,20.50
2023-05-15T11:04:11.025Z,20.50
2023-05-15T11:05:05.224Z,20.40
2023-05-15T11:06:05.171Z,20.50
2023-05-15T11:07:05.343Z,20.40
2023-05-15T11:08:05.364Z,20.30
2023-05-15T11:09:14.135Z,20.20
2023-05-15T11:10:06.175Z,20.20
2023-05-15T11:11:05.369Z,20.10
2023-05-15T11:12:09.095Z,20.00
2023-05-15T11:13:03.572Z,20.00
2023-05-15T11:14:03.529Z,19.90
2023-05-15T11:15:03.549Z,19.90
2023-05-15T11:16:06.205Z,19.80
2023-05-15T11:17:05.290Z,20.00
2023-05-15T11:18:05.405Z,19.90
2023-05-15T11:19:05.408Z,19.90
2023-05-15T11:21:06.231Z,20.00
2023-05-15T11:22:05.232Z,20.00
2023-05-15T11:23:06.238Z,20.10
2023-05-15T11:24:06.218Z,20.10
2023-05-15T11:25:05.179Z,20.10
2023-05-15T11:26:05.184Z,20.20
2023-05-15T11:27:05.274Z,20.30
2023-05-15T11:28:05.399Z,20.40
2023-05-15T11:29:05.390Z,20.50
2023-05-15T11:30:05.385Z,20.60
2023-05-15T11:31:05.386Z,20.70
2023-05-15T11:33:05.431Z,20.80
2023-05-15T11:35:05.374Z,20.80
2023-05-15T11:36:05.416Z,20.90
2023-05-15T11:37:05.410Z,20.90
2023-05-15T11:38:09.136Z,20.90
2023-05-15T11:39:05.161Z,20.90
2023-05-15T11:40:05.254Z,20.90
2023-05-15T11:41:05.235Z,21.00
2023-05-15T11:42:08.907Z,21.00
2023-05-15T11:43:05.885Z,21.00
2023-05-15T11:44:08.388Z,21.00
2023-05-15T11:45:05.264Z,21.00
2023-05-15T11:46:09.041Z,21.10
2023-05-15T11:47:05.248Z,21.10
2023-05-15T11:48:05.443Z,21.10
2023-05-15T11:49:05.677Z,21.10
2023-05-15T11:50:05.418Z,21.10
2023-05-15T11:51:09.144Z,21.00
2023-05-15T11:52:06.238Z,21.00
2023-05-15T11:53:08.831Z,21.00
2023-05-15T11:54:06.380Z,21.00
2023-05-15T11:55:03.535Z,21.00
2023-05-15T11:56:03.643Z,21.00
2023-05-15T11:57:11.445Z,21.00
2023-05-15T11:58:05.398Z,21.00
2023-05-15T11:59:05.405Z,21.00
2023-05-15T12:00:05.447Z,21.00
2023-05-15T12:02:05.410Z,21.00
2023-05-15T12:03:05.501Z,20.90
2023-05-15T12:05:03.383Z,20.80
2023-05-15T12:06:03.372Z,20.80
2023-05-15T12:07:05.171Z,20.70
2023-05-15T12:09:06.248Z,20.50
2023-05-15T12:10:11.256Z,20.40
2023-05-15T12:11:05.246Z,20.40
2023-05-15T12:12:05.241Z,20.30
2023-05-15T12:13:05.458Z,20.20
2023-05-15T12:14:09.160Z,19.90
2023-05-15T12:15:08.624Z,19.80
2023-05-15T12:16:05.466Z,19.80
2023-05-15T12:17:05.424Z,19.80
2023-05-15T12:18:05.486Z,19.70
2023-05-15T12:19:09.231Z,19.50
2023-05-15T12:20:08.984Z,19.30
2023-05-15T12:21:08.708Z,19.30
2023-05-15T12:22:05.798Z,19.30
2023-05-15T12:23:05.880Z,19.20
2023-05-15T12:24:07.981Z,19.20
2023-05-15T12:25:05.464Z,19.10
2023-05-15T12:26:05.412Z,19.10
2023-05-15T12:27:05.441Z,19.10
2023-05-15T12:29:03.676Z,19.00
2023-05-15T12:30:03.585Z,19.00
2023-05-15T12:31:08.738Z,18.90
2023-05-15T12:32:03.241Z,19.00
2023-05-15T12:33:05.547Z,19.00
2023-05-15T12:35:06.294Z,18.90
2023-05-15T12:36:05.255Z,18.90
2023-05-15T12:37:09.095Z,18.90
2023-05-15T12:38:06.063Z,18.80
2023-05-15T12:39:03.542Z,18.80
2023-05-15T12:40:08.594Z,18.80
2023-05-15T12:41:05.483Z,18.80
2023-05-15T12:42:05.482Z,18.80
2023-05-15T12:43:09.138Z,18.80
2023-05-15T12:44:03.635Z,18.80
2023-05-15T12:45:03.671Z,18.80
2023-05-15T12:46:11.412Z,18.90
2023-05-15T12:47:06.514Z,18.90
2023-05-15T12:48:09.065Z,18.90
2023-05-15T12:49:06.150Z,18.90
2023-05-15T12:50:03.587Z,18.80
2023-05-15T12:51:06.198Z,19.00
2023-05-15T12:52:06.118Z,19.00
2023-05-15T12:53:03.536Z,19.00
2023-05-15T12:54:03.540Z,19.00
2023-05-15T12:55:06.084Z,19.10
2023-05-15T12:56:03.615Z,19.10
2023-05-15T12:57:06.132Z,19.20
2023-05-15T12:58:03.520Z,19.20
2023-05-15T12:59:03.504Z,19.20
2023-05-15T13:00:03.533Z,19.20
2023-05-15T13:01:03.642Z,19.30
2023-05-15T13:02:09.131Z,19.40
2023-05-15T13:03:06.283Z,19.40
2023-05-15T13:04:05.344Z,19.40
2023-05-15T13:05:09.031Z,19.40
2023-05-15T13:06:03.516Z,19.50
2023-05-15T13:07:08.561Z,19.50
2023-05-15T13:08:05.464Z,19.50
2023-05-15T13:09:09.146Z,19.60
2023-05-15T13:10:03.601Z,19.60
2023-05-15T13:11:09.343Z,19.70
2023-05-15T13:12:06.305Z,19.80
2023-05-15T13:13:11.442Z,19.60
2023-05-15T13:14:05.461Z,19.60
2023-05-15T13:15:11.576Z,19.80
2023-05-15T13:16:11.602Z,19.90
2023-05-15T13:17:05.868Z,19.90
2023-05-15T13:18:08.480Z,19.90
2023-05-15T13:19:05.800Z,20.00
2023-05-15T13:20:03.214Z,20.00
2023-05-15T13:21:06.314Z,20.00
2023-05-15T13:22:05.230Z,20.10
2023-05-15T13:23:05.265Z,20.10
2023-05-15T13:24:08.884Z,20.10
2023-05-15T13:25:05.321Z,20.20
2023-05-15T13:26:05.500Z,20.20
2023-05-15T13:27:09.069Z,20.20
2023-05-15T13:29:03.524Z,20.20
2023-05-15T13:30:03.523Z,20.30
2023-05-15T13:31:06.088Z,20.30
2023-05-15T13:32:03.627Z,20.30
2023-05-15T13:33:03.744Z,20.30
2023-05-15T13:34:05.295Z,20.40
2023-05-15T13:35:05.339Z,20.40
2023-05-15T13:36:05.574Z,20.40
2023-05-15T13:37:09.273Z,20.40
2023-05-15T13:38:05.245Z,20.40
2023-05-15T13:39:06.243Z,20.50
2023-05-15T13:40:08.784Z,20.50
2023-05-15T13:41:05.788Z,20.60
2023-05-15T13:42:05.748Z,20.60
2023-05-15T13:43:03.292Z,20.60
2023-05-15T13:44:05.466Z,20.60
2023-05-15T13:45:09.212Z,20.60
2023-05-15T13:46:08.803Z,20.60
2023-05-15T13:47:03.389Z,20.60
2023-05-15T13:48:05.383Z,20.60
2023-05-15T13:49:05.812Z,20.60
2023-05-15T13:50:06.421Z,20.60
2023-05-15T13:51:05.512Z,20.60
2023-05-15T13:52:05.565Z,20.50
2023-05-15T13:53:05.536Z,20.50
2023-05-15T13:54:05.542Z,20.50
2023-05-15T13:55:05.728Z,20.40
2023-05-15T13:56:05.569Z,20.40
2023-05-15T13:57:06.095Z,20.40
2023-05-15T13:58:06.100Z,20.50
2023-05-15T13:59:03.599Z,20.50
2023-05-15T14:00:06.189Z,20.50
2023-05-15T14:01:03.737Z,20.50
2023-05-15T14:02:05.357Z,20.50
2023-05-15T14:03:05.455Z,20.50
2023-05-15T14:04:05.914Z,20.60
2023-05-15T14:05:03.476Z,20.60
2023-05-15T14:06:08.605Z,20.60
2023-05-15T14:07:05.542Z,20.60
2023-05-15T14:08:11.659Z,20.70
2023-05-15T14:09:09.125Z,20.80
2023-05-15T14:10:05.293Z,20.80
2023-05-15T14:11:06.383Z,20.80
2023-05-15T14:12:05.373Z,20.80